createdAt,value
2018-12-25T00:00:40.702Z,91.64
2018-12-25T00:01:40.706Z,91.43
2018-12-25T00:02:40.679Z,91.95
2018-12-25T00:03:40.664Z,91.53
2018-12-25T00:04:40.658Z,91.22
2018-12-25T00:05:40.660Z,91.43
2018-12-25T00:06:40.637Z,91.43
2018-12-25T00:07:40.629Z,91.43
2018-12-25T00:08:40.623Z,91.43
2018-12-25T00:09:40.601Z,91.64
2018-12-25T00:10:40.594Z,91.22
2018-12-25T00:11:40.580Z,91.85
2018-12-25T00:12:40.588Z,92.05
2018-12-25T00:13:40.560Z,91.95
2018-12-25T00:14:40.612Z,91.64
2018-12-25T00:15:40.559Z,91.43
2018-12-25T00:16:40.550Z,91.64
2018-12-25T00:17:40.522Z,91.80
2018-12-25T00:18:40.539Z,91.85
2018-12-25T00:19:40.532Z,92.05
2018-12-25T00:20:40.523Z,91.85
2018-12-25T00:21:40.532Z,91.95
2018-12-25T00:22:40.485Z,91.43
2018-12-25T00:23:40.477Z,91.64
2018-12-25T00:24:40.485Z,91.64
2018-12-25T00:25:40.460Z,91.33
2018-12-25T00:26:40.422Z,91.22
2018-12-25T00:27:40.421Z,91.74
2018-12-25T00:28:40.430Z,91.53
2018-12-25T00:29:40.412Z,91.91
2018-12-25T00:30:40.461Z,92.11
2018-12-25T00:31:40.370Z,91.28
2018-12-25T00:32:40.362Z,91.08
2018-12-25T00:33:40.391Z,90.81
2018-12-25T00:34:40.413Z,91.12
2018-12-25T00:35:40.326Z,91.18
2018-12-25T00:36:40.327Z,91.02
2018-12-25T00:37:40.306Z,91.33
2018-12-25T00:38:40.312Z,90.87
2018-12-25T00:39:40.332Z,90.66
2018-12-25T00:40:40.288Z,91.28
2018-12-25T00:41:40.338Z,91.39
2018-12-25T00:42:40.275Z,91.95
2018-12-25T00:43:40.250Z,91.80
2018-12-25T00:44:40.363Z,91.08
2018-12-25T00:45:40.260Z,91.28
2018-12-25T00:46:40.229Z,91.18
2018-12-25T00:47:40.241Z,90.97
2018-12-25T00:48:40.187Z,91.18
2018-12-25T00:49:40.340Z,91.18
2018-12-25T00:50:40.186Z,90.97
2018-12-25T00:51:40.198Z,91.85
2018-12-25T00:52:40.181Z,91.39
2018-12-25T00:53:40.167Z,91.33
2018-12-25T00:54:40.140Z,91.33
2018-12-25T00:55:40.185Z,91.33
2018-12-25T00:56:40.216Z,91.85
2018-12-25T00:57:40.264Z,91.80
2018-12-25T00:58:40.085Z,91.39
2018-12-25T00:59:40.118Z,91.80
2018-12-25T01:00:40.085Z,91.64
2018-12-25T01:01:40.049Z,91.80
2018-12-25T01:02:40.041Z,91.49
2018-12-25T01:03:40.028Z,91.91
2018-12-25T01:04:40.020Z,92.43
2018-12-25T01:05:40.008Z,92.36
2018-12-25T01:06:39.998Z,92.47
2018-12-25T01:07:39.986Z,92.53
2018-12-25T01:08:39.977Z,92.53
2018-12-25T01:09:39.966Z,92.32
2018-12-25T01:10:39.958Z,91.80
2018-12-25T01:11:39.946Z,92.32
2018-12-25T01:12:39.937Z,91.80
2018-12-25T01:13:39.922Z,92.53
2018-12-25T01:14:39.915Z,92.53
2018-12-25T01:15:39.905Z,92.22
2018-12-25T01:16:39.892Z,92.53
2018-12-25T01:17:39.884Z,92.63
2018-12-25T01:18:39.874Z,92.22
2018-12-25T01:19:39.865Z,91.80
2018-12-25T01:20:39.852Z,92.22
2018-12-25T01:21:39.837Z,92.11
2018-12-25T01:22:39.831Z,92.11
2018-12-25T01:23:39.818Z,92.22
2018-12-25T01:24:39.808Z,92.22
2018-12-25T01:25:39.797Z,92.63
2018-12-25T01:26:39.787Z,92.74
2018-12-25T01:27:39.778Z,92.43
2018-12-25T01:28:39.763Z,93.37
2018-12-25T01:29:39.755Z,93.26
2018-12-25T01:30:39.745Z,93.37
2018-12-25T01:31:39.732Z,93.37
2018-12-25T01:32:39.723Z,93.47
2018-12-25T01:33:39.712Z,94.13
2018-12-25T01:34:39.700Z,94.61
2018-12-25T01:35:39.693Z,94.71
2018-12-25T01:36:39.682Z,95.13
2018-12-25T01:37:39.671Z,95.23
2018-12-25T01:38:39.661Z,95.69
2018-12-25T01:39:39.651Z,95.79
2018-12-25T01:40:39.639Z,95.54
2018-12-25T01:41:39.634Z,95.65
2018-12-25T01:42:39.619Z,95.54
2018-12-25T01:43:39.609Z,95.65
2018-12-25T01:44:39.597Z,95.75
2018-12-25T01:45:39.590Z,96.17
2018-12-25T01:46:39.576Z,95.44
2018-12-25T01:47:39.569Z,96.06
2018-12-25T01:48:39.554Z,96.58
2018-12-25T01:49:39.543Z,97.00
2018-12-25T01:50:39.534Z,96.58
2018-12-25T01:51:39.521Z,97.56
2018-12-25T01:52:39.511Z,97.25
2018-12-25T01:53:39.499Z,97.20
2018-12-25T01:54:39.491Z,97.52
2018-12-25T01:55:39.481Z,98.08
2018-12-25T01:56:39.468Z,97.93
2018-12-25T01:57:39.458Z,98.03
2018-12-25T01:58:39.447Z,98.45
2018-12-25T01:59:39.440Z,98.71
2018-12-25T02:00:39.428Z,98.39
2018-12-25T02:01:39.414Z,98.50
2018-12-25T02:02:39.404Z,98.39
2018-12-25T02:03:39.401Z,98.29
2018-12-25T02:04:39.384Z,97.93
2018-12-25T02:05:39.373Z,98.19
2018-12-25T02:06:39.364Z,98.60
2018-12-25T02:07:39.352Z,98.60
2018-12-25T02:08:39.344Z,98.50
2018-12-25T02:09:39.330Z,98.66
2018-12-25T02:10:39.325Z,98.55
2018-12-25T02:11:39.309Z,98.60
2018-12-25T02:12:39.301Z,98.14
2018-12-25T02:13:39.288Z,97.56
2018-12-25T02:14:39.278Z,98.81
2018-12-25T02:15:39.267Z,98.35
2018-12-25T02:16:39.260Z,98.08
2018-12-25T02:17:39.248Z,98.14
2018-12-25T02:18:39.235Z,97.98
2018-12-25T02:19:40.320Z,98.35
2018-12-25T02:20:39.215Z,98.03
2018-12-25T02:21:39.205Z,97.72
2018-12-25T02:22:39.244Z,97.72
2018-12-25T02:23:39.186Z,97.72
2018-12-25T02:24:39.171Z,98.14
2018-12-25T02:25:39.162Z,98.03
2018-12-25T02:26:39.153Z,97.93
2018-12-25T02:27:39.141Z,98.03
2018-12-25T02:28:39.128Z,97.93
2018-12-25T02:29:39.119Z,97.83
2018-12-25T02:30:39.120Z,97.52
2018-12-25T02:31:39.099Z,97.10
2018-12-25T02:32:39.092Z,97.27
2018-12-25T02:33:39.085Z,97.47
2018-12-25T02:34:39.066Z,96.95
2018-12-25T02:35:39.070Z,97.06
2018-12-25T02:36:39.048Z,96.54
2018-12-25T02:37:39.038Z,96.89
2018-12-25T02:38:39.024Z,96.64
2018-12-25T02:39:39.013Z,97.27
2018-12-25T02:40:39.006Z,97.41
2018-12-25T02:41:38.994Z,97.06
2018-12-25T02:42:38.980Z,96.95
2018-12-25T02:43:38.971Z,97.27
2018-12-25T02:44:38.962Z,96.79
2018-12-25T02:45:38.951Z,97.37
2018-12-25T02:46:38.940Z,98.35
2018-12-25T02:47:38.928Z,98.14
2018-12-25T02:48:38.920Z,97.93
2018-12-25T02:49:38.908Z,97.83
2018-12-25T02:50:38.896Z,97.83
2018-12-25T02:51:38.886Z,97.89
2018-12-25T02:52:38.876Z,97.78
2018-12-25T02:53:38.869Z,98.20
2018-12-25T02:54:38.855Z,97.68
2018-12-25T02:55:38.844Z,97.99
2018-12-25T02:56:38.835Z,97.68
2018-12-25T02:57:38.822Z,97.78
2018-12-25T02:58:38.819Z,97.89
2018-12-25T02:59:38.806Z,97.68
2018-12-25T03:00:38.792Z,97.37
2018-12-25T03:01:38.787Z,97.89
2018-12-25T03:02:38.769Z,97.99
2018-12-25T03:03:38.760Z,97.47
2018-12-25T03:04:38.748Z,97.47
2018-12-25T03:05:38.738Z,97.37
2018-12-25T03:06:38.741Z,97.58
2018-12-25T03:07:38.718Z,97.12
2018-12-25T03:08:38.707Z,97.33
2018-12-25T03:09:38.698Z,97.33
2018-12-25T03:10:38.689Z,97.53
2018-12-25T03:11:38.678Z,97.33
2018-12-25T03:12:38.668Z,97.33
2018-12-25T03:13:38.656Z,97.53
2018-12-25T03:14:38.643Z,97.33
2018-12-25T03:15:38.635Z,97.22
2018-12-25T03:16:38.626Z,97.02
2018-12-25T03:17:38.613Z,97.33
2018-12-25T03:18:38.601Z,97.33
2018-12-25T03:19:38.593Z,98.05
2018-12-25T03:20:38.589Z,97.74
2018-12-25T03:21:38.568Z,98.26
2018-12-25T03:22:38.556Z,98.26
2018-12-25T03:23:38.547Z,98.36
2018-12-25T03:24:38.538Z,98.30
2018-12-25T03:25:38.525Z,98.10
2018-12-25T03:26:38.520Z,98.30
2018-12-25T03:27:38.504Z,98.68
2018-12-25T03:28:38.493Z,98.88
2018-12-25T03:29:38.485Z,98.78
2018-12-25T03:30:38.476Z,98.82
2018-12-25T03:31:38.464Z,99.13
2018-12-25T03:32:38.452Z,98.82
2018-12-25T03:33:38.442Z,98.82
2018-12-25T03:34:38.430Z,99.24
2018-12-25T03:35:38.419Z,99.76
2018-12-25T03:36:38.410Z,98.72
2018-12-25T03:37:38.399Z,98.93
2018-12-25T03:38:38.387Z,98.20
2018-12-25T03:39:38.379Z,98.51
2018-12-25T03:40:38.369Z,98.30
2018-12-25T03:41:38.357Z,98.41
2018-12-25T03:42:38.344Z,98.30
2018-12-25T03:43:38.334Z,98.16
2018-12-25T03:44:38.324Z,98.61
2018-12-25T03:45:38.314Z,98.16
2018-12-25T03:46:38.301Z,98.36
2018-12-25T03:47:38.295Z,98.26
2018-12-25T03:48:38.288Z,98.05
2018-12-25T03:49:38.274Z,98.16
2018-12-25T03:50:38.266Z,97.64
2018-12-25T03:51:38.253Z,97.33
2018-12-25T03:52:38.238Z,97.85
2018-12-25T03:53:38.232Z,97.43
2018-12-25T03:54:38.223Z,97.33
2018-12-25T03:55:38.293Z,97.22
2018-12-25T03:56:38.198Z,97.53
2018-12-25T03:57:38.195Z,97.02
2018-12-25T03:58:38.176Z,96.91
2018-12-25T03:59:38.170Z,97.22
2018-12-25T04:00:38.159Z,96.91
2018-12-25T04:01:38.143Z,97.33
2018-12-25T04:02:38.133Z,96.91
2018-12-25T04:03:38.123Z,96.60
2018-12-25T04:04:38.114Z,96.76
2018-12-25T04:05:38.103Z,97.07
2018-12-25T04:06:38.098Z,97.17
2018-12-25T04:07:38.084Z,97.12
2018-12-25T04:08:38.178Z,96.66
2018-12-25T04:09:38.060Z,96.97
2018-12-25T04:10:38.051Z,96.97
2018-12-25T04:11:38.039Z,96.76
2018-12-25T04:12:38.028Z,97.07
2018-12-25T04:13:38.019Z,96.86
2018-12-25T04:14:38.012Z,96.86
2018-12-25T04:15:37.997Z,96.76
2018-12-25T04:16:37.988Z,96.86
2018-12-25T04:17:37.975Z,96.60
2018-12-25T04:18:37.965Z,96.70
2018-12-25T04:19:37.957Z,96.86
2018-12-25T04:20:37.945Z,97.17
2018-12-25T04:21:37.937Z,95.83
2018-12-25T04:22:37.926Z,96.03
2018-12-25T04:23:37.912Z,96.08
2018-12-25T04:24:37.901Z,95.83
2018-12-25T04:25:37.893Z,95.62
2018-12-25T04:26:37.882Z,96.03
2018-12-25T04:27:37.869Z,96.14
2018-12-25T04:28:37.859Z,95.83
2018-12-25T04:29:37.848Z,95.93
2018-12-25T04:30:37.839Z,96.34
2018-12-25T04:31:37.827Z,96.14
2018-12-25T04:32:37.818Z,96.03
2018-12-25T04:33:37.807Z,95.98
2018-12-25T04:34:37.796Z,96.24
2018-12-25T04:35:37.783Z,95.83
2018-12-25T04:36:37.778Z,95.93
2018-12-25T04:37:37.763Z,95.93
2018-12-25T04:38:37.755Z,95.93
2018-12-25T04:39:37.789Z,96.24
2018-12-25T04:40:37.732Z,95.62
2018-12-25T04:41:37.724Z,95.51
2018-12-25T04:42:37.709Z,95.72
2018-12-25T04:43:37.701Z,95.51
2018-12-25T04:44:37.692Z,95.31
2018-12-25T04:45:37.677Z,95.51
2018-12-25T04:46:37.671Z,95.62
2018-12-25T04:47:37.660Z,95.51
2018-12-25T04:48:37.647Z,95.51
2018-12-25T04:49:37.641Z,95.20
2018-12-25T04:50:37.626Z,95.41
2018-12-25T04:51:37.614Z,95.62
2018-12-25T04:52:37.604Z,95.51
2018-12-25T04:53:37.592Z,95.41
2018-12-25T04:54:37.582Z,95.51
2018-12-25T04:55:37.577Z,95.04
2018-12-25T04:56:37.564Z,95.41
2018-12-25T04:57:37.556Z,95.31
2018-12-25T04:58:37.540Z,95.31
2018-12-25T04:59:37.529Z,95.67
2018-12-25T05:00:37.519Z,95.51
2018-12-25T05:01:37.506Z,95.31
2018-12-25T05:02:37.498Z,95.00
2018-12-25T05:03:37.486Z,95.67
2018-12-25T05:04:37.475Z,95.56
2018-12-25T05:05:37.466Z,95.67
2018-12-25T05:06:37.458Z,95.36
2018-12-25T05:07:37.446Z,95.15
2018-12-25T05:08:37.438Z,95.15
2018-12-25T05:09:37.428Z,95.56
2018-12-25T05:10:37.416Z,95.15
2018-12-25T05:11:37.414Z,95.04
2018-12-25T05:12:37.393Z,95.46
2018-12-25T05:13:37.383Z,94.84
2018-12-25T05:14:37.372Z,94.63
2018-12-25T05:15:37.359Z,94.63
2018-12-25T05:16:37.349Z,94.53
2018-12-25T05:17:37.341Z,94.42
2018-12-25T05:18:37.327Z,94.63
2018-12-25T05:19:37.316Z,93.90
2018-12-25T05:20:38.036Z,94.32
2018-12-25T05:21:37.294Z,94.21
2018-12-25T05:22:37.287Z,93.90
2018-12-25T05:23:37.342Z,93.59
2018-12-25T05:24:37.264Z,94.32
2018-12-25T05:25:37.255Z,94.11
2018-12-25T05:26:37.243Z,94.06
2018-12-25T05:27:37.232Z,94.11
2018-12-25T05:28:37.223Z,94.11
2018-12-25T05:29:37.211Z,94.32
2018-12-25T05:30:37.199Z,94.53
2018-12-25T05:31:37.195Z,94.21
2018-12-25T05:32:37.179Z,94.21
2018-12-25T05:33:37.168Z,94.32
2018-12-25T05:34:37.157Z,94.42
2018-12-25T05:35:37.154Z,94.21
2018-12-25T05:36:37.139Z,94.36
2018-12-25T05:37:37.128Z,94.21
2018-12-25T05:38:37.115Z,94.67
2018-12-25T05:39:37.109Z,94.67
2018-12-25T05:40:37.097Z,94.36
2018-12-25T05:41:37.084Z,94.88
2018-12-25T05:42:37.073Z,94.88
2018-12-25T05:43:37.061Z,94.57
2018-12-25T05:44:37.050Z,94.57
2018-12-25T05:45:37.042Z,94.57
2018-12-25T05:46:37.030Z,94.46
2018-12-25T05:47:37.022Z,94.57
2018-12-25T05:48:37.011Z,94.78
2018-12-25T05:49:36.999Z,94.78
2018-12-25T05:50:36.987Z,94.46
2018-12-25T05:51:36.979Z,94.46
2018-12-25T05:52:36.967Z,94.57
2018-12-25T05:53:36.956Z,94.36
2018-12-25T05:54:36.948Z,93.63
2018-12-25T05:55:36.935Z,93.74
2018-12-25T05:56:36.924Z,93.78
2018-12-25T05:57:36.915Z,93.47
2018-12-25T05:58:36.906Z,93.88
2018-12-25T05:59:36.895Z,93.32
2018-12-25T06:00:36.979Z,93.53
2018-12-25T06:01:36.871Z,93.43
2018-12-25T06:02:36.861Z,93.53
2018-12-25T06:03:36.852Z,93.43
2018-12-25T06:04:36.840Z,93.32
2018-12-25T06:05:36.829Z,93.43
2018-12-25T06:06:36.819Z,93.43
2018-12-25T06:07:36.808Z,93.63
2018-12-25T06:08:36.798Z,93.74
2018-12-25T06:09:36.789Z,93.68
2018-12-25T06:10:36.775Z,93.47
2018-12-25T06:11:36.766Z,93.57
2018-12-25T06:12:36.756Z,93.63
2018-12-25T06:13:36.743Z,93.26
2018-12-25T06:14:36.734Z,92.90
2018-12-25T06:15:36.723Z,92.49
2018-12-25T06:16:36.712Z,92.49
2018-12-25T06:17:36.704Z,92.07
2018-12-25T06:18:36.691Z,92.22
2018-12-25T06:19:36.681Z,92.22
2018-12-25T06:20:36.670Z,91.97
2018-12-25T06:21:36.659Z,92.49
2018-12-25T06:22:36.650Z,91.70
2018-12-25T06:23:36.639Z,92.59
2018-12-25T06:24:36.628Z,92.59
2018-12-25T06:25:36.617Z,91.70
2018-12-25T06:26:36.606Z,91.35
2018-12-25T06:27:36.596Z,91.86
2018-12-25T06:28:36.588Z,91.66
2018-12-25T06:29:36.579Z,91.86
2018-12-25T06:30:36.566Z,91.76
2018-12-25T06:31:36.557Z,91.66
2018-12-25T06:32:36.544Z,91.24
2018-12-25T06:33:36.534Z,91.55
2018-12-25T06:34:36.522Z,91.66
2018-12-25T06:35:36.514Z,91.35
2018-12-25T06:36:36.504Z,91.86
2018-12-25T06:37:36.497Z,91.86
2018-12-25T06:38:36.484Z,91.97
2018-12-25T06:39:36.472Z,91.66
2018-12-25T06:40:36.461Z,91.97
2018-12-25T06:41:37.608Z,91.45
2018-12-25T06:42:36.446Z,91.76
2018-12-25T06:43:36.433Z,91.86
2018-12-25T06:44:36.417Z,91.66
2018-12-25T06:45:36.407Z,92.28
2018-12-25T06:46:36.403Z,91.55
2018-12-25T06:47:36.384Z,91.76
2018-12-25T06:48:36.373Z,92.59
2018-12-25T06:49:36.362Z,92.28
2018-12-25T06:50:36.358Z,92.63
2018-12-25T06:51:36.342Z,92.28
2018-12-25T06:52:36.335Z,91.76
2018-12-25T06:53:36.322Z,92.49
2018-12-25T06:54:36.313Z,91.66
2018-12-25T06:55:36.305Z,91.35
2018-12-25T06:56:36.293Z,91.66
2018-12-25T06:57:36.280Z,92.49
2018-12-25T06:58:36.267Z,91.55
2018-12-25T06:59:36.258Z,92.49
2018-12-25T07:00:36.245Z,91.97
2018-12-25T07:01:36.241Z,92.28
2018-12-25T07:02:36.226Z,92.07
2018-12-25T07:03:36.215Z,91.76
2018-12-25T07:04:36.207Z,91.66
2018-12-25T07:05:36.196Z,92.59
2018-12-25T07:06:36.183Z,92.38
2018-12-25T07:07:36.173Z,92.07
2018-12-25T07:08:36.162Z,91.55
2018-12-25T07:09:36.155Z,92.07
2018-12-25T07:10:36.143Z,91.76
2018-12-25T07:11:36.133Z,91.86
2018-12-25T07:12:36.123Z,91.24
2018-12-25T07:13:36.108Z,91.66
2018-12-25T07:14:36.099Z,91.55
2018-12-25T07:15:36.090Z,91.14
2018-12-25T07:16:36.077Z,91.86
2018-12-25T07:17:36.066Z,91.76
2018-12-25T07:18:36.055Z,91.24
2018-12-25T07:19:36.045Z,91.55
2018-12-25T07:20:36.034Z,91.20
2018-12-25T07:21:36.027Z,92.38
2018-12-25T07:22:36.013Z,92.24
2018-12-25T07:23:36.002Z,92.59
2018-12-25T07:24:35.991Z,92.49
2018-12-25T07:25:35.980Z,92.59
2018-12-25T07:26:35.970Z,91.97
2018-12-25T07:27:35.961Z,92.18
2018-12-25T07:28:35.949Z,92.24
2018-12-25T07:29:35.938Z,92.90
2018-12-25T07:30:35.927Z,93.12
2018-12-25T07:31:35.917Z,93.74
2018-12-25T07:32:35.909Z,93.53
2018-12-25T07:33:35.896Z,94.21
2018-12-25T07:34:35.885Z,94.67
2018-12-25T07:35:35.876Z,94.15
2018-12-25T07:36:35.865Z,94.78
2018-12-25T07:37:35.856Z,95.40
2018-12-25T07:38:35.842Z,95.29
2018-12-25T07:39:35.846Z,95.61
2018-12-25T07:40:35.822Z,95.40
2018-12-25T07:41:35.816Z,95.50
2018-12-25T07:42:35.801Z,95.50
2018-12-25T07:43:35.793Z,95.81
2018-12-25T07:44:35.778Z,95.61
2018-12-25T07:45:35.771Z,95.92
2018-12-25T07:46:35.757Z,96.02
2018-12-25T07:47:35.746Z,96.58
2018-12-25T07:48:35.736Z,96.64
2018-12-25T07:49:35.732Z,96.85
2018-12-25T07:50:35.717Z,97.06
2018-12-25T07:51:35.704Z,96.54
2018-12-25T07:52:35.695Z,96.54
2018-12-25T07:53:35.683Z,97.16
2018-12-25T07:54:35.675Z,97.52
2018-12-25T07:55:35.666Z,97.41
2018-12-25T07:56:35.654Z,97.27
2018-12-25T07:57:35.641Z,97.93
2018-12-25T07:58:35.630Z,97.83
2018-12-25T07:59:35.621Z,98.14
2018-12-25T08:00:35.611Z,97.52
2018-12-25T08:01:35.599Z,97.93
2018-12-25T08:02:35.593Z,98.10
2018-12-25T08:03:35.581Z,97.93
2018-12-25T08:04:35.567Z,97.93
2018-12-25T08:05:35.555Z,98.20
2018-12-25T08:06:35.546Z,97.68
2018-12-25T08:07:35.534Z,97.89
2018-12-25T08:08:35.524Z,97.72
2018-12-25T08:09:35.522Z,97.62
2018-12-25T08:10:35.504Z,98.10
2018-12-25T08:11:35.493Z,98.10
2018-12-25T08:12:35.483Z,97.99
2018-12-25T08:13:35.471Z,97.68
2018-12-25T08:14:35.459Z,97.89
2018-12-25T08:15:35.458Z,97.78
2018-12-25T08:16:35.439Z,97.37
2018-12-25T08:17:35.431Z,97.06
2018-12-25T08:18:35.420Z,97.68
2018-12-25T08:19:35.407Z,97.37
2018-12-25T08:20:35.402Z,97.16
2018-12-25T08:21:35.407Z,97.16
2018-12-25T08:22:35.382Z,97.27
2018-12-25T08:23:35.375Z,96.70
2018-12-25T08:24:35.361Z,97.47
2018-12-25T08:25:35.348Z,96.85
2018-12-25T08:26:35.347Z,96.95
2018-12-25T08:27:35.331Z,96.85
2018-12-25T08:28:35.313Z,96.81
2018-12-25T08:29:35.304Z,96.02
2018-12-25T08:30:35.295Z,95.71
2018-12-25T08:31:35.290Z,96.08
2018-12-25T08:32:35.276Z,95.77
2018-12-25T08:33:35.265Z,95.67
2018-12-25T08:34:35.253Z,95.46
2018-12-25T08:35:35.237Z,95.36
2018-12-25T08:36:36.493Z,95.36
2018-12-25T08:37:35.221Z,95.36
2018-12-25T08:38:35.223Z,95.36
2018-12-25T08:39:35.202Z,95.25
2018-12-25T08:40:35.191Z,95.15
2018-12-25T08:41:35.179Z,95.36
2018-12-25T08:42:35.171Z,94.32
2018-12-25T08:43:35.158Z,94.63
2018-12-25T08:44:35.150Z,94.53
2018-12-25T08:45:35.189Z,94.63
2018-12-25T08:46:35.128Z,94.32
2018-12-25T08:47:35.117Z,94.58
2018-12-25T08:48:35.113Z,94.17
2018-12-25T08:49:35.095Z,94.48
2018-12-25T08:50:35.089Z,94.58
2018-12-25T08:51:37.761Z,94.27
2018-12-25T08:52:35.065Z,94.06
2018-12-25T08:53:35.050Z,94.27
2018-12-25T08:54:35.042Z,93.54
2018-12-25T08:55:35.027Z,92.61
2018-12-25T08:56:35.017Z,92.30
2018-12-25T08:57:35.005Z,93.54
2018-12-25T08:58:35.000Z,92.61
2018-12-25T08:59:34.987Z,92.51
2018-12-25T09:00:34.974Z,92.41
2018-12-25T09:01:34.970Z,91.99
2018-12-25T09:02:34.952Z,92.47
2018-12-25T09:03:34.941Z,92.98
2018-12-25T09:04:34.934Z,93.13
2018-12-25T09:05:34.923Z,92.30
2018-12-25T09:06:34.910Z,92.41
2018-12-25T09:07:34.901Z,91.85
2018-12-25T09:08:35.249Z,91.22
2018-12-25T09:09:34.878Z,91.33
2018-12-25T09:10:34.867Z,91.53
2018-12-25T09:11:34.856Z,91.85
2018-12-25T09:12:34.845Z,91.78
2018-12-25T09:13:34.839Z,92.05
2018-12-25T09:14:34.823Z,92.26
2018-12-25T09:15:34.814Z,92.47
2018-12-25T09:16:34.802Z,91.43
2018-12-25T09:17:34.794Z,91.43
2018-12-25T09:18:34.784Z,91.53
2018-12-25T09:19:34.773Z,90.39
2018-12-25T09:20:34.762Z,91.12
2018-12-25T09:21:34.751Z,90.19
2018-12-25T09:22:34.738Z,90.81
2018-12-25T09:23:34.731Z,90.70
2018-12-25T09:24:34.718Z,89.98
2018-12-25T09:25:34.705Z,89.98
2018-12-25T09:26:34.702Z,90.60
2018-12-25T09:27:34.685Z,90.66
2018-12-25T09:28:34.680Z,90.08
2018-12-25T09:29:34.668Z,89.94
2018-12-25T09:30:34.661Z,90.35
2018-12-25T09:31:34.649Z,90.04
2018-12-25T09:32:34.632Z,90.45
2018-12-25T09:33:34.625Z,88.90
2018-12-25T09:34:34.614Z,88.69
2018-12-25T09:35:34.601Z,89.73
2018-12-25T09:36:34.594Z,88.90
2018-12-25T09:37:34.584Z,89.94
2018-12-25T09:38:34.574Z,88.90
2018-12-25T09:39:34.565Z,88.69
2018-12-25T09:40:34.551Z,88.90
2018-12-25T09:41:34.539Z,88.79
2018-12-25T09:42:34.532Z,89.17
2018-12-25T09:43:34.519Z,88.69
2018-12-25T09:44:34.510Z,88.03
2018-12-25T09:45:34.491Z,88.24
2018-12-25T09:46:34.481Z,88.65
2018-12-25T09:47:34.471Z,87.93
2018-12-25T09:48:34.459Z,87.93
2018-12-25T09:49:34.453Z,87.93
2018-12-25T09:50:34.438Z,88.34
2018-12-25T09:51:34.442Z,87.93
2018-12-25T09:52:34.473Z,88.13
2018-12-25T09:53:34.409Z,87.82
2018-12-25T09:54:34.460Z,88.03
2018-12-25T09:55:34.385Z,87.82
2018-12-25T09:56:34.380Z,87.82
2018-12-25T09:57:34.369Z,87.62
2018-12-25T09:58:34.359Z,87.72
2018-12-25T09:59:34.347Z,87.99
2018-12-25T10:00:34.344Z,87.68
2018-12-25T10:01:34.327Z,87.78
2018-12-25T10:02:34.320Z,87.78
2018-12-25T10:03:34.305Z,87.72
2018-12-25T10:04:34.301Z,87.51
2018-12-25T10:05:34.283Z,87.57
2018-12-25T10:06:34.269Z,87.47
2018-12-25T10:07:34.259Z,87.78
2018-12-25T10:08:34.247Z,87.68
2018-12-25T10:09:34.236Z,87.88
2018-12-25T10:10:34.226Z,87.82
2018-12-25T10:11:34.215Z,87.68
2018-12-25T10:12:34.202Z,86.75
2018-12-25T10:13:34.192Z,87.57
2018-12-25T10:14:34.266Z,87.47
2018-12-25T10:15:34.171Z,87.57
2018-12-25T10:16:34.163Z,87.30
2018-12-25T10:17:34.157Z,87.57
2018-12-25T10:18:34.140Z,87.68
2018-12-25T10:19:34.130Z,87.78
2018-12-25T10:20:34.118Z,87.78
2018-12-25T10:21:34.109Z,86.75
2018-12-25T10:22:34.097Z,86.85
2018-12-25T10:23:34.085Z,86.85
2018-12-25T10:24:34.074Z,87.68
2018-12-25T10:25:34.072Z,87.68
2018-12-25T10:26:34.072Z,87.37
2018-12-25T10:27:34.045Z,86.65
2018-12-25T10:28:34.039Z,86.71
2018-12-25T10:29:34.024Z,86.40
2018-12-25T10:30:34.014Z,85.99
2018-12-25T10:31:34.007Z,86.91
2018-12-25T10:32:33.988Z,87.74
2018-12-25T10:33:33.988Z,86.81
2018-12-25T10:34:33.969Z,86.29
2018-12-25T10:35:33.957Z,86.29
2018-12-25T10:36:33.946Z,86.50
2018-12-25T10:37:33.933Z,86.57
2018-12-25T10:38:33.927Z,86.19
2018-12-25T10:39:33.921Z,85.78
2018-12-25T10:40:33.905Z,85.94
2018-12-25T10:41:33.905Z,85.68
2018-12-25T10:42:33.890Z,86.09
2018-12-25T10:43:34.921Z,85.94
2018-12-25T10:44:33.867Z,86.40
2018-12-25T10:45:33.850Z,86.25
2018-12-25T10:46:33.840Z,85.68
2018-12-25T10:47:33.830Z,86.05
2018-12-25T10:48:33.849Z,85.22
2018-12-25T10:49:33.814Z,86.15
2018-12-25T10:50:33.800Z,85.53
2018-12-25T10:51:33.787Z,85.22
2018-12-25T10:52:33.778Z,85.74
2018-12-25T10:53:33.767Z,84.39
2018-12-25T10:54:33.757Z,84.91
2018-12-25T10:55:33.748Z,85.53
2018-12-25T10:56:33.734Z,85.53
2018-12-25T10:57:33.724Z,84.29
2018-12-25T10:58:33.713Z,84.50
2018-12-25T10:59:33.703Z,84.70
2018-12-25T11:00:33.688Z,84.29
2018-12-25T11:01:33.687Z,85.84
2018-12-25T11:02:33.672Z,84.29
2018-12-25T11:03:33.662Z,85.11
2018-12-25T11:04:33.652Z,84.70
2018-12-25T11:05:33.639Z,84.87
2018-12-25T11:06:33.632Z,84.45
2018-12-25T11:07:33.618Z,84.36
2018-12-25T11:08:33.606Z,84.25
2018-12-25T11:09:33.611Z,84.87
2018-12-25T11:10:33.587Z,84.45
2018-12-25T11:11:33.639Z,83.84
2018-12-25T11:12:33.563Z,84.15
2018-12-25T11:13:33.550Z,83.94
2018-12-25T11:14:33.539Z,84.25
2018-12-25T11:15:33.528Z,84.05
2018-12-25T11:16:33.523Z,83.84
2018-12-25T11:17:33.529Z,84.25
2018-12-25T11:18:33.496Z,83.73
2018-12-25T11:19:33.484Z,83.87
2018-12-25T11:20:33.475Z,84.45
2018-12-25T11:21:33.464Z,84.05
2018-12-25T11:22:33.454Z,84.05
2018-12-25T11:23:33.447Z,84.15
2018-12-25T11:24:33.432Z,84.45
2018-12-25T11:25:33.421Z,83.94
2018-12-25T11:26:33.411Z,83.94
2018-12-25T11:27:33.408Z,83.73
2018-12-25T11:28:33.389Z,84.00
2018-12-25T11:29:33.387Z,83.39
2018-12-25T11:30:33.369Z,83.07
2018-12-25T11:31:33.361Z,83.80
2018-12-25T11:32:33.349Z,82.73
2018-12-25T11:33:33.338Z,82.21
2018-12-25T11:34:33.340Z,82.45
2018-12-25T11:35:33.318Z,83.28
2018-12-25T11:36:33.323Z,82.42
2018-12-25T11:37:33.303Z,82.89
2018-12-25T11:38:33.294Z,82.31
2018-12-25T11:39:33.315Z,82.52
2018-12-25T11:40:33.269Z,82.83
2018-12-25T11:41:33.256Z,83.18
2018-12-25T11:42:33.243Z,83.18
2018-12-25T11:43:33.234Z,84.31
2018-12-25T11:44:33.303Z,83.59
2018-12-25T11:45:33.216Z,84.25
2018-12-25T11:46:33.209Z,84.56
2018-12-25T11:47:33.199Z,84.66
2018-12-25T11:48:33.218Z,83.94
2018-12-25T11:49:33.175Z,84.36
2018-12-25T11:50:33.165Z,84.56
2018-12-25T11:51:33.148Z,84.45
2018-12-25T11:52:33.139Z,84.56
2018-12-25T11:53:33.128Z,83.94
2018-12-25T11:54:33.121Z,83.94
2018-12-25T11:55:33.107Z,84.77
2018-12-25T11:56:33.090Z,83.94
2018-12-25T11:57:33.079Z,84.15
2018-12-25T11:58:33.068Z,84.36
2018-12-25T11:59:33.069Z,84.56
2018-12-25T12:00:33.047Z,83.84
2018-12-25T12:01:33.040Z,83.84
2018-12-25T12:02:33.028Z,83.94
2018-12-25T12:03:33.014Z,84.42
2018-12-25T12:04:33.005Z,83.80
2018-12-25T12:05:32.995Z,84.00
2018-12-25T12:06:32.987Z,83.28
2018-12-25T12:07:32.975Z,83.70
2018-12-25T12:08:32.979Z,83.18
2018-12-25T12:09:32.957Z,84.21
2018-12-25T12:10:32.943Z,84.63
2018-12-25T12:11:32.932Z,83.28
2018-12-25T12:12:32.922Z,84.45
2018-12-25T12:13:32.911Z,83.22
2018-12-25T12:14:32.902Z,84.66
2018-12-25T12:15:32.891Z,83.70
2018-12-25T12:16:32.880Z,83.90
2018-12-25T12:17:32.865Z,82.87
2018-12-25T12:18:32.858Z,82.87
2018-12-25T12:19:32.853Z,83.07
2018-12-25T12:20:32.839Z,83.18
2018-12-25T12:21:32.827Z,82.97
2018-12-25T12:22:36.928Z,84.42
2018-12-25T12:23:32.810Z,83.18
2018-12-25T12:24:32.794Z,83.49
2018-12-25T12:25:32.784Z,84.00
2018-12-25T12:26:32.773Z,84.21
2018-12-25T12:27:32.761Z,83.49
2018-12-25T12:28:32.749Z,84.00
2018-12-25T12:29:32.746Z,84.42
2018-12-25T12:30:32.734Z,84.42
2018-12-25T12:31:32.715Z,83.39
2018-12-25T12:32:32.704Z,83.65
2018-12-25T12:33:32.696Z,83.65
2018-12-25T12:34:32.684Z,82.97
2018-12-25T12:35:32.675Z,84.11
2018-12-25T12:36:32.700Z,83.90
2018-12-25T12:37:32.652Z,84.52
2018-12-25T12:38:32.641Z,84.63
2018-12-25T12:39:32.633Z,84.15
2018-12-25T12:40:32.620Z,84.00
2018-12-25T12:41:32.607Z,84.00
2018-12-25T12:42:32.600Z,84.15
2018-12-25T12:43:32.589Z,84.56
2018-12-25T12:44:32.577Z,84.15
2018-12-25T12:45:32.566Z,84.25
2018-12-25T12:46:32.554Z,84.36
2018-12-25T12:47:32.548Z,84.15
2018-12-25T12:48:32.532Z,84.05
2018-12-25T12:49:32.525Z,83.90
2018-12-25T12:50:32.512Z,84.15
2018-12-25T12:51:32.501Z,84.42
2018-12-25T12:52:32.494Z,83.70